createdAt,value
2019-03-25T00:00:47.976Z,70.15
2019-03-25T00:01:47.974Z,70.67
2019-03-25T00:02:47.935Z,71.29
2019-03-25T00:03:47.941Z,71.50
2019-03-25T00:04:47.919Z,71.33
2019-03-25T00:05:47.906Z,71.81
2019-03-25T00:06:47.916Z,71.60
2019-03-25T00:07:47.888Z,70.67
2019-03-25T00:08:47.878Z,71.08
2019-03-25T00:09:47.871Z,70.67
2019-03-25T00:10:47.846Z,70.67
2019-03-25T00:11:47.858Z,71.19
2019-03-25T00:12:47.836Z,71.50
2019-03-25T00:13:47.816Z,71.60
2019-03-25T00:14:47.821Z,70.98
2019-03-25T00:15:47.792Z,71.29
2019-03-25T00:16:47.848Z,71.91
2019-03-25T00:17:47.781Z,72.02
2019-03-25T00:18:47.767Z,71.19
2019-03-25T00:19:47.750Z,71.29
2019-03-25T00:20:47.752Z,71.29
2019-03-25T00:21:47.768Z,71.50
2019-03-25T00:22:47.720Z,71.08
2019-03-25T00:23:47.710Z,71.15
2019-03-25T00:24:47.702Z,70.95
2019-03-25T00:25:47.689Z,70.12
2019-03-25T00:26:47.700Z,70.84
2019-03-25T00:27:47.662Z,70.01
2019-03-25T00:28:47.655Z,70.43
2019-03-25T00:29:47.650Z,70.32
2019-03-25T00:30:47.628Z,69.92
2019-03-25T00:31:47.653Z,70.74
2019-03-25T00:32:47.610Z,70.64
2019-03-25T00:33:47.606Z,70.22
2019-03-25T00:34:47.582Z,70.12
2019-03-25T00:35:47.578Z,70.53
2019-03-25T00:36:47.583Z,71.67
2019-03-25T00:37:47.554Z,70.64
2019-03-25T00:38:47.545Z,70.53
2019-03-25T00:39:47.530Z,70.74
2019-03-25T00:40:47.526Z,70.77
2019-03-25T00:41:47.532Z,71.19
2019-03-25T00:42:47.501Z,71.29
2019-03-25T00:43:47.489Z,71.22
2019-03-25T00:44:47.474Z,72.67
2019-03-25T00:45:47.464Z,72.15
2019-03-25T00:46:47.472Z,72.56
2019-03-25T00:47:47.442Z,72.98
2019-03-25T00:48:47.440Z,73.94
2019-03-25T00:49:47.420Z,73.53
2019-03-25T00:50:47.414Z,73.53
2019-03-25T00:51:47.432Z,73.11
2019-03-25T00:52:47.580Z,73.11
2019-03-25T00:53:47.391Z,73.43
2019-03-25T00:54:50.136Z,73.88
2019-03-25T00:55:47.365Z,73.84
2019-03-25T00:56:47.346Z,74.36
2019-03-25T00:57:47.573Z,74.15
2019-03-25T00:58:47.320Z,74.26
2019-03-25T00:59:49.036Z,73.94
2019-03-25T01:00:47.303Z,74.05
2019-03-25T01:01:47.286Z,73.43
2019-03-25T01:02:47.306Z,73.88
2019-03-25T01:03:47.278Z,74.46
2019-03-25T01:04:47.258Z,74.57
2019-03-25T01:05:47.253Z,74.15
2019-03-25T01:06:47.232Z,73.53
2019-03-25T01:07:47.242Z,73.53
2019-03-25T01:08:47.209Z,73.94
2019-03-25T01:09:47.202Z,73.94
2019-03-25T01:10:47.186Z,73.84
2019-03-25T01:11:49.320Z,73.22
2019-03-25T01:12:47.180Z,72.91
2019-03-25T01:13:47.170Z,73.29
2019-03-25T01:14:47.159Z,73.53
2019-03-25T01:15:47.134Z,73.19
2019-03-25T01:16:47.126Z,73.19
2019-03-25T01:17:47.580Z,73.19
2019-03-25T01:18:47.103Z,72.56
2019-03-25T01:19:47.090Z,72.25
2019-03-25T01:20:47.087Z,72.56
2019-03-25T01:21:47.066Z,72.50
2019-03-25T01:22:47.114Z,72.67
2019-03-25T01:23:47.046Z,72.15
2019-03-25T01:24:47.035Z,72.36
2019-03-25T01:25:47.031Z,72.50
2019-03-25T01:26:47.010Z,72.39
2019-03-25T01:27:47.022Z,72.91
2019-03-25T01:28:46.985Z,73.32
2019-03-25T01:29:46.984Z,73.53
2019-03-25T01:30:46.972Z,73.43
2019-03-25T01:31:46.956Z,73.43
2019-03-25T01:32:46.981Z,73.19
2019-03-25T01:33:46.960Z,72.50
2019-03-25T01:34:46.927Z,72.46
2019-03-25T01:35:46.909Z,72.91
2019-03-25T01:36:46.905Z,72.60
2019-03-25T01:37:46.922Z,72.39
2019-03-25T01:38:46.886Z,72.81
2019-03-25T01:39:46.862Z,72.39
2019-03-25T01:40:46.859Z,73.29
2019-03-25T01:41:46.848Z,72.71
2019-03-25T01:42:47.088Z,73.43
2019-03-25T01:43:46.822Z,73.22
2019-03-25T01:44:46.814Z,73.22
2019-03-25T01:45:46.805Z,73.11
2019-03-25T01:46:46.787Z,72.91
2019-03-25T01:47:46.816Z,72.98
2019-03-25T01:48:46.785Z,72.88
2019-03-25T01:49:46.763Z,72.25
2019-03-25T01:50:46.743Z,72.36
2019-03-25T01:51:46.738Z,72.25
2019-03-25T01:52:46.753Z,71.53
2019-03-25T01:53:46.731Z,71.94
2019-03-25T01:54:46.711Z,72.15
2019-03-25T01:55:46.696Z,71.94
2019-03-25T01:56:46.688Z,73.08
2019-03-25T01:57:46.678Z,72.50
2019-03-25T01:58:46.675Z,73.22
2019-03-25T01:59:46.655Z,73.32
2019-03-25T02:00:46.634Z,74.15
2019-03-25T02:01:46.630Z,73.94
2019-03-25T02:02:46.611Z,73.46
2019-03-25T02:03:46.629Z,73.46
2019-03-25T02:04:46.591Z,73.98
2019-03-25T02:05:46.576Z,73.98
2019-03-25T02:06:46.568Z,74.08
2019-03-25T02:07:46.556Z,74.08
2019-03-25T02:08:46.580Z,74.40
2019-03-25T02:09:46.535Z,74.29
2019-03-25T02:10:46.527Z,74.19
2019-03-25T02:11:46.512Z,74.29
2019-03-25T02:12:46.504Z,74.08
2019-03-25T02:13:46.510Z,75.09
2019-03-25T02:14:46.484Z,74.46
2019-03-25T02:15:46.476Z,73.84
2019-03-25T02:16:46.466Z,73.53
2019-03-25T02:17:46.448Z,72.98
2019-03-25T02:18:46.472Z,73.39
2019-03-25T02:19:46.426Z,72.56
2019-03-25T02:20:46.410Z,72.56
2019-03-25T02:21:46.406Z,72.60
2019-03-25T02:22:46.537Z,72.05
2019-03-25T02:23:46.408Z,71.88
2019-03-25T02:24:46.366Z,72.67
2019-03-25T02:25:46.360Z,71.33
2019-03-25T02:26:46.346Z,71.94
2019-03-25T02:27:46.342Z,71.88
2019-03-25T02:28:46.347Z,72.91
2019-03-25T02:29:46.321Z,72.60
2019-03-25T02:30:46.314Z,72.08
2019-03-25T02:31:46.300Z,72.56
2019-03-25T02:32:46.281Z,71.88
2019-03-25T02:33:46.290Z,72.67
2019-03-25T02:34:46.257Z,71.25
2019-03-25T02:35:46.254Z,72.08
2019-03-25T02:36:46.235Z,72.29
2019-03-25T02:37:46.227Z,72.05
2019-03-25T02:38:46.241Z,72.50
2019-03-25T02:39:46.217Z,72.29
2019-03-25T02:40:46.200Z,72.29
2019-03-25T02:41:46.199Z,73.22
2019-03-25T02:42:46.172Z,72.71
2019-03-25T02:43:46.198Z,72.50
2019-03-25T02:44:46.160Z,72.32
2019-03-25T02:45:46.148Z,72.42
2019-03-25T02:46:46.143Z,72.53
2019-03-25T02:47:46.125Z,72.63
2019-03-25T02:48:46.130Z,72.77
2019-03-25T02:49:46.091Z,72.77
2019-03-25T02:50:46.586Z,72.74
2019-03-25T02:51:46.076Z,73.57
2019-03-25T02:52:46.071Z,74.01
2019-03-25T02:53:46.053Z,73.98
2019-03-25T02:54:46.064Z,73.15
2019-03-25T02:55:46.033Z,72.67
2019-03-25T02:56:46.033Z,73.49
2019-03-25T02:57:46.012Z,73.49
2019-03-25T02:58:46.019Z,72.88
2019-03-25T02:59:46.020Z,73.70
2019-03-25T03:00:45.971Z,73.08
2019-03-25T03:01:45.984Z,72.88
2019-03-25T03:02:45.952Z,73.01
2019-03-25T03:03:45.950Z,73.49
2019-03-25T03:04:45.963Z,74.05
2019-03-25T03:05:45.918Z,74.26
2019-03-25T03:06:45.903Z,73.63
2019-03-25T03:07:45.902Z,73.11
2019-03-25T03:08:47.666Z,73.43
2019-03-25T03:09:45.894Z,73.63
2019-03-25T03:10:45.862Z,73.84
2019-03-25T03:11:45.853Z,73.84
2019-03-25T03:12:45.848Z,73.74
2019-03-25T03:13:45.826Z,74.05
2019-03-25T03:14:45.835Z,73.22
2019-03-25T03:15:45.811Z,73.32
2019-03-25T03:16:45.796Z,72.88
2019-03-25T03:17:45.788Z,72.77
2019-03-25T03:18:45.783Z,73.08
2019-03-25T03:19:45.801Z,72.88
2019-03-25T03:20:45.782Z,73.18
2019-03-25T03:21:45.744Z,72.88
2019-03-25T03:22:45.738Z,72.36
2019-03-25T03:23:45.722Z,72.67
2019-03-25T03:24:45.797Z,73.18
2019-03-25T03:25:57.369Z,72.98
2019-03-25T03:26:46.705Z,72.36
2019-03-25T03:27:45.681Z,72.77
2019-03-25T03:28:45.666Z,72.77
2019-03-25T03:29:45.673Z,72.80
2019-03-25T03:30:45.666Z,72.98
2019-03-25T03:31:45.635Z,72.77
2019-03-25T03:32:45.629Z,72.56
2019-03-25T03:33:45.611Z,72.56
2019-03-25T03:34:45.640Z,73.39
2019-03-25T03:35:46.686Z,73.57
2019-03-25T03:36:45.585Z,72.56
2019-03-25T03:37:45.570Z,72.42
2019-03-25T03:38:45.553Z,72.74
2019-03-25T03:39:45.571Z,72.56
2019-03-25T03:40:45.536Z,72.15
2019-03-25T03:41:45.529Z,72.15
2019-03-25T03:42:45.520Z,72.25
2019-03-25T03:43:45.498Z,72.67
2019-03-25T03:44:45.511Z,72.67
2019-03-25T03:45:45.481Z,72.56
2019-03-25T03:46:45.471Z,73.43
2019-03-25T03:47:45.460Z,72.91
2019-03-25T03:48:45.445Z,72.98
2019-03-25T03:49:45.487Z,73.32
2019-03-25T03:50:45.431Z,73.32
2019-03-25T03:51:45.408Z,73.01
2019-03-25T03:52:45.403Z,73.11
2019-03-25T03:53:45.398Z,73.22
2019-03-25T03:54:45.400Z,73.63
2019-03-25T03:55:45.366Z,73.11
2019-03-25T03:56:45.363Z,73.22
2019-03-25T03:57:45.344Z,72.80
2019-03-25T03:58:45.337Z,73.01
2019-03-25T03:59:45.355Z,73.43
2019-03-25T04:00:45.313Z,73.53
2019-03-25T04:01:45.302Z,72.70
2019-03-25T04:02:45.293Z,73.11
2019-03-25T04:03:45.285Z,73.22
2019-03-25T04:04:45.310Z,74.05
2019-03-25T04:05:45.257Z,73.57
2019-03-25T04:06:45.248Z,73.22
2019-03-25T04:07:45.238Z,73.15
2019-03-25T04:08:45.226Z,74.15
2019-03-25T04:09:45.219Z,73.74
2019-03-25T04:10:45.307Z,74.15
2019-03-25T04:11:45.197Z,74.46
2019-03-25T04:12:45.185Z,73.43
2019-03-25T04:13:45.197Z,73.32
2019-03-25T04:14:45.167Z,73.67
2019-03-25T04:15:45.169Z,73.46
2019-03-25T04:16:45.136Z,74.29
2019-03-25T04:17:45.128Z,74.50
2019-03-25T04:18:45.125Z,74.60
2019-03-25T04:19:45.100Z,74.77
2019-03-25T04:20:45.152Z,74.77
2019-03-25T04:21:45.091Z,74.98
2019-03-25T04:22:45.075Z,75.09
2019-03-25T04:23:46.544Z,74.88
2019-03-25T04:24:45.054Z,74.05
2019-03-25T04:25:45.076Z,75.02
2019-03-25T04:26:45.036Z,74.08
2019-03-25T04:27:45.018Z,74.50
2019-03-25T04:28:45.007Z,74.08
2019-03-25T04:29:45.028Z,74.29
2019-03-25T04:30:44.999Z,74.81
2019-03-25T04:31:44.980Z,73.98
2019-03-25T04:32:44.978Z,75.12
2019-03-25T04:33:44.954Z,74.91
2019-03-25T04:34:44.938Z,74.81
2019-03-25T04:35:44.976Z,76.06
2019-03-25T04:36:44.913Z,75.54
2019-03-25T04:37:44.904Z,75.50
2019-03-25T04:38:44.906Z,75.40
2019-03-25T04:39:44.900Z,74.67
2019-03-25T04:40:44.877Z,75.29
2019-03-25T04:41:44.886Z,75.40
2019-03-25T04:42:44.852Z,74.98
2019-03-25T04:43:44.844Z,75.29
2019-03-25T04:44:44.826Z,75.19
2019-03-25T04:45:44.814Z,74.77
2019-03-25T04:46:44.828Z,74.36
2019-03-25T04:47:44.807Z,75.19
2019-03-25T04:48:44.788Z,74.88
2019-03-25T04:49:44.781Z,74.22
2019-03-25T04:50:44.766Z,75.67
2019-03-25T04:51:45.118Z,75.78
2019-03-25T04:52:44.747Z,75.15
2019-03-25T04:53:44.733Z,74.08
2019-03-25T04:54:44.724Z,74.71
2019-03-25T04:55:44.722Z,74.01
2019-03-25T04:56:44.712Z,73.98
2019-03-25T04:57:44.683Z,74.29
2019-03-25T04:58:44.678Z,73.98
2019-03-25T04:59:44.664Z,74.19
2019-03-25T05:00:44.654Z,73.57
2019-03-25T05:01:44.680Z,72.94
2019-03-25T05:02:44.630Z,73.36
2019-03-25T05:03:44.620Z,72.74
2019-03-25T05:04:44.614Z,73.57
2019-03-25T05:05:44.606Z,74.08
2019-03-25T05:06:44.607Z,72.42
2019-03-25T05:07:44.584Z,71.39
2019-03-25T05:08:44.566Z,73.63
2019-03-25T05:09:44.553Z,73.84
2019-03-25T05:10:44.544Z,72.81
2019-03-25T05:11:44.553Z,72.39
2019-03-25T05:12:44.524Z,72.39
2019-03-25T05:13:44.511Z,72.19
2019-03-25T05:14:44.496Z,72.81
2019-03-25T05:15:44.495Z,71.94
2019-03-25T05:16:44.497Z,71.88
2019-03-25T05:17:44.476Z,71.25
2019-03-25T05:18:44.458Z,71.36
2019-03-25T05:19:44.438Z,72.15
2019-03-25T05:20:44.433Z,71.46
2019-03-25T05:21:44.452Z,72.39
2019-03-25T05:22:44.413Z,72.50
2019-03-25T05:23:44.404Z,72.08
2019-03-25T05:24:44.387Z,72.15
2019-03-25T05:25:44.378Z,72.88
2019-03-25T05:26:51.072Z,71.53
2019-03-25T05:27:45.373Z,71.33
2019-03-25T05:28:44.345Z,73.08
2019-03-25T05:29:44.331Z,71.63
2019-03-25T05:30:44.321Z,72.33
2019-03-25T05:31:44.314Z,71.84
2019-03-25T05:32:44.321Z,72.67
2019-03-25T05:33:44.289Z,73.05
2019-03-25T05:34:44.280Z,71.50
2019-03-25T05:35:46.758Z,70.98
2019-03-25T05:36:44.250Z,70.98
2019-03-25T05:37:44.258Z,72.15
2019-03-25T05:38:44.237Z,71.19
2019-03-25T05:39:44.226Z,72.05
2019-03-25T05:40:44.263Z,71.60
2019-03-25T05:41:44.198Z,71.39
2019-03-25T05:42:44.221Z,71.81
2019-03-25T05:43:44.175Z,71.91
2019-03-25T05:44:44.172Z,72.33
2019-03-25T05:45:44.158Z,71.81
2019-03-25T05:46:44.154Z,71.57
2019-03-25T05:47:44.174Z,70.43
2019-03-25T05:48:44.117Z,70.64
2019-03-25T05:49:44.119Z,70.95
2019-03-25T05:50:44.096Z,70.74
2019-03-25T05:51:44.096Z,70.64
2019-03-25T05:52:44.133Z,72.12
2019-03-25T05:53:44.066Z,71.08
2019-03-25T05:54:44.066Z,71.19
2019-03-25T05:55:44.132Z,72.12
2019-03-25T05:56:44.036Z,73.88
2019-03-25T05:57:44.060Z,73.46
2019-03-25T05:58:44.018Z,73.67
2019-03-25T05:59:44.000Z,74.81
2019-03-25T06:00:43.992Z,73.98
2019-03-25T06:01:44.386Z,75.12
2019-03-25T06:02:43.985Z,76.57
2019-03-25T06:03:43.956Z,78.33
2019-03-25T06:04:43.959Z,80.02
2019-03-25T06:05:43.932Z,82.13
2019-03-25T06:06:43.942Z,83.41
2019-03-25T06:07:43.927Z,84.69
2019-03-25T06:08:43.938Z,85.35
2019-03-25T06:09:43.889Z,87.22
2019-03-25T06:10:43.884Z,85.35
2019-03-25T06:11:43.866Z,86.22
2019-03-25T06:12:43.878Z,86.33
2019-03-25T06:13:43.858Z,86.85
2019-03-25T06:14:43.852Z,87.78
2019-03-25T06:15:43.821Z,87.37
2019-03-25T06:16:43.819Z,87.88
2019-03-25T06:17:43.844Z,87.26
2019-03-25T06:18:43.788Z,86.43
2019-03-25T06:19:43.778Z,87.78
2019-03-25T06:20:43.769Z,86.74
2019-03-25T06:21:43.760Z,89.23
2019-03-25T06:22:43.771Z,87.68
2019-03-25T06:23:43.748Z,87.26
2019-03-25T06:24:43.730Z,87.26
2019-03-25T06:25:43.730Z,87.99
2019-03-25T06:26:43.701Z,88.44
2019-03-25T06:27:43.807Z,88.85
2019-03-25T06:28:43.679Z,90.31
2019-03-25T06:29:43.673Z,90.62
2019-03-25T06:30:43.663Z,91.49
2019-03-25T06:31:43.665Z,91.39
2019-03-25T06:32:43.651Z,91.91
2019-03-25T06:33:43.622Z,92.53
2019-03-25T06:34:43.610Z,92.32
2019-03-25T06:35:43.608Z,93.26
2019-03-25T06:36:43.596Z,93.47
2019-03-25T06:37:43.630Z,94.20
2019-03-25T06:38:43.579Z,94.82
2019-03-25T06:39:43.562Z,94.40
2019-03-25T06:40:43.555Z,94.24
2019-03-25T06:41:43.538Z,94.24
2019-03-25T06:42:43.565Z,94.65
2019-03-25T06:43:43.514Z,94.86
2019-03-25T06:44:43.500Z,93.66
2019-03-25T06:45:43.488Z,95.21
2019-03-25T06:46:43.479Z,95.21
2019-03-25T06:47:43.479Z,95.94
2019-03-25T06:48:43.481Z,95.26
2019-03-25T06:49:43.448Z,96.30
2019-03-25T06:50:43.446Z,96.45
2019-03-25T06:51:45.193Z,96.97
2019-03-25T06:52:43.420Z,97.59
2019-03-25T06:53:43.423Z,97.91
2019-03-25T06:54:43.401Z,98.84
2019-03-25T06:55:43.387Z,98.74
2019-03-25T06:56:43.370Z,98.53
2019-03-25T06:57:43.370Z,99.05
2019-03-25T06:58:43.380Z,98.84
2019-03-25T06:59:43.347Z,98.43
2019-03-25T07:00:43.334Z,99.05
2019-03-25T07:01:43.316Z,98.84
2019-03-25T07:02:43.306Z,98.84
2019-03-25T07:03:43.340Z,99.05
2019-03-25T07:04:43.288Z,98.68
2019-03-25T07:05:43.269Z,98.43
2019-03-25T07:06:43.261Z,98.78
2019-03-25T07:07:43.253Z,98.47
2019-03-25T07:08:43.277Z,98.36
2019-03-25T07:09:43.233Z,98.57
2019-03-25T07:10:43.221Z,98.99
2019-03-25T07:11:43.210Z,98.78
2019-03-25T07:12:43.198Z,98.72
2019-03-25T07:13:43.214Z,98.72
2019-03-25T07:14:43.185Z,98.52
2019-03-25T07:15:44.414Z,99.04
2019-03-25T07:16:43.163Z,98.93
2019-03-25T07:17:43.142Z,98.62
2019-03-25T07:18:43.146Z,98.83
2019-03-25T07:19:43.148Z,98.72
2019-03-25T07:20:43.118Z,98.77
2019-03-25T07:21:43.119Z,98.56
2019-03-25T07:22:43.094Z,98.72
2019-03-25T07:23:43.078Z,98.97
2019-03-25T07:24:43.090Z,98.87
2019-03-25T07:25:43.058Z,98.87
2019-03-25T07:26:43.057Z,99.18
2019-03-25T07:27:43.038Z,98.93
2019-03-25T07:28:43.022Z,99.04
2019-03-25T07:29:43.034Z,98.72
2019-03-25T07:30:43.002Z,99.24
2019-03-25T07:31:42.992Z,99.98
2019-03-25T07:32:42.998Z,99.99
2019-03-25T07:33:42.986Z,99.04
2019-03-25T07:34:43.008Z,98.68
2019-03-25T07:35:42.965Z,98.68
2019-03-25T07:36:42.934Z,98.68
2019-03-25T07:37:42.928Z,98.36
2019-03-25T07:38:42.921Z,98.88
2019-03-25T07:39:42.920Z,98.99
2019-03-25T07:40:42.889Z,97.64
2019-03-25T07:41:42.880Z,97.53
2019-03-25T07:42:43.154Z,97.53
2019-03-25T07:43:42.868Z,97.01
2019-03-25T07:44:42.870Z,97.49
2019-03-25T07:45:42.840Z,98.01
2019-03-25T07:46:42.825Z,97.70
2019-03-25T07:47:42.850Z,98.63
2019-03-25T07:48:42.807Z,98.74
2019-03-25T07:49:42.818Z,97.49
2019-03-25T07:50:42.786Z,97.70
2019-03-25T07:51:42.769Z,97.38
2019-03-25T07:52:42.764Z,97.44
2019-03-25T07:53:42.801Z,97.44
2019-03-25T07:54:42.765Z,97.86
2019-03-25T07:55:42.735Z,98.27
2019-03-25T07:56:42.738Z,98.54
2019-03-25T07:57:48.085Z,97.30
2019-03-25T07:58:43.702Z,97.61
2019-03-25T07:59:42.711Z,97.81
2019-03-25T08:00:42.686Z,96.98
2019-03-25T08:01:42.674Z,96.52
2019-03-25T08:02:42.647Z,96.25
2019-03-25T08:03:42.670Z,95.48
2019-03-25T08:04:42.661Z,95.69
2019-03-25T08:05:42.637Z,96.31
2019-03-25T08:06:42.623Z,95.17
2019-03-25T08:07:42.620Z,96.21
2019-03-25T08:08:42.581Z,95.44
2019-03-25T08:09:42.580Z,95.65
2019-03-25T08:10:42.588Z,95.54
2019-03-25T08:11:42.558Z,95.23
2019-03-25T08:12:42.554Z,96.12
2019-03-25T08:13:42.553Z,95.19
2019-03-25T08:14:42.553Z,95.40
2019-03-25T08:15:42.547Z,95.09
2019-03-25T08:16:42.493Z,94.05
2019-03-25T08:17:42.487Z,94.92
2019-03-25T08:18:42.481Z,94.36
2019-03-25T08:19:42.462Z,93.95
2019-03-25T08:20:42.466Z,94.05
2019-03-25T08:21:42.450Z,94.36
2019-03-25T08:22:42.434Z,94.46
2019-03-25T08:23:42.423Z,94.78
2019-03-25T08:24:42.412Z,94.57
2019-03-25T08:25:42.418Z,94.01
2019-03-25T08:26:42.912Z,94.88
2019-03-25T08:27:42.377Z,94.42
2019-03-25T08:28:42.380Z,94.11
2019-03-25T08:29:42.366Z,94.46
2019-03-25T08:30:42.368Z,93.63
2019-03-25T08:31:42.331Z,93.32
2019-03-25T08:32:42.325Z,94.01
2019-03-25T08:33:42.310Z,94.05
2019-03-25T08:34:42.300Z,94.05
2019-03-25T08:35:43.165Z,94.11
2019-03-25T08:36:42.278Z,93.07
2019-03-25T08:37:42.268Z,93.18
2019-03-25T08:38:42.260Z,92.24
2019-03-25T08:39:42.251Z,93.07
2019-03-25T08:40:42.275Z,93.49
2019-03-25T08:41:42.229Z,93.59
2019-03-25T08:42:42.207Z,92.20
2019-03-25T08:43:42.199Z,92.30
2019-03-25T08:44:42.201Z,93.02
2019-03-25T08:45:42.196Z,92.41
2019-03-25T08:46:42.178Z,92.10
2019-03-25T08:47:42.166Z,91.58
2019-03-25T08:48:42.146Z,90.39
2019-03-25T08:49:42.137Z,90.60
2019-03-25T08:50:42.154Z,90.29
2019-03-25T08:51:42.111Z,89.56
2019-03-25T08:52:42.132Z,90.56
2019-03-25T08:53:42.086Z,90.14
2019-03-25T08:54:42.092Z,89.98
2019-03-25T08:55:42.086Z,89.21
2019-03-25T08:56:42.065Z,89.62
2019-03-25T08:57:42.048Z,90.50
2019-03-25T08:58:42.048Z,89.77
2019-03-25T08:59:42.024Z,89.36
2019-03-25T09:00:42.059Z,89.98
2019-03-25T09:01:42.022Z,89.36
2019-03-25T09:02:42.009Z,88.84
2019-03-25T09:03:41.981Z,89.46
2019-03-25T09:04:41.973Z,89.25
2019-03-25T09:05:41.962Z,89.15
2019-03-25T09:06:41.969Z,89.52
2019-03-25T09:07:41.974Z,88.24
2019-03-25T09:08:41.927Z,87.30
2019-03-25T09:09:41.917Z,87.06
2019-03-25T09:10:41.913Z,85.92
2019-03-25T09:11:41.932Z,84.78
2019-03-25T09:12:41.881Z,84.99
2019-03-25T09:13:41.872Z,85.40
2019-03-25T09:14:41.860Z,86.33
2019-03-25T09:15:41.850Z,85.55
2019-03-25T09:16:41.856Z,86.02
2019-03-25T09:17:41.824Z,87.16
2019-03-25T09:18:41.821Z,86.37
2019-03-25T09:19:41.808Z,87.20
2019-03-25T09:20:41.799Z,87.10
2019-03-25T09:21:41.803Z,87.10
2019-03-25T09:22:41.768Z,86.89
2019-03-25T09:23:41.760Z,87.30
2019-03-25T09:24:41.750Z,87.47
2019-03-25T09:25:41.741Z,86.23
2019-03-25T09:26:41.755Z,85.19
2019-03-25T09:27:41.716Z,86.02
2019-03-25T09:28:41.700Z,86.81
2019-03-25T09:29:41.696Z,85.47
2019-03-25T09:30:41.688Z,84.43
2019-03-25T09:31:41.699Z,84.33
2019-03-25T09:32:41.674Z,84.29
2019-03-25T09:33:41.651Z,84.19
2019-03-25T09:34:41.636Z,83.36
2019-03-25T09:35:41.683Z,83.87
2019-03-25T09:36:41.646Z,81.39
2019-03-25T09:37:41.613Z,82.01
2019-03-25T09:38:41.607Z,83.15
2019-03-25T09:39:41.582Z,83.46
2019-03-25T09:40:41.572Z,83.11
2019-03-25T09:41:41.584Z,82.18
2019-03-25T09:42:41.568Z,82.39
2019-03-25T09:43:41.551Z,83.01
2019-03-25T09:44:41.528Z,83.22
2019-03-25T09:45:41.522Z,83.07
2019-03-25T09:46:41.585Z,82.97
2019-03-25T09:47:41.499Z,83.39
2019-03-25T09:48:41.495Z,82.21
2019-03-25T09:49:41.484Z,80.18
2019-03-25T09:50:42.113Z,79.25
2019-03-25T09:51:41.475Z,80.90
2019-03-25T09:52:41.444Z,80.25
2019-03-25T09:53:41.425Z,80.15
2019-03-25T09:54:41.423Z,79.01
2019-03-25T09:55:41.411Z,78.56
2019-03-25T09:56:41.437Z,78.14
2019-03-25T09:57:41.392Z,77.28
2019-03-25T09:58:41.388Z,76.77
2019-03-25T09:59:41.362Z,75.22
2019-03-25T10:00:41.360Z,75.29
2019-03-25T10:01:41.383Z,73.74
2019-03-25T10:02:41.335Z,72.92
2019-03-25T10:03:41.325Z,73.77
2019-03-25T10:04:41.321Z,73.85
2019-03-25T10:05:41.301Z,72.71
2019-03-25T10:06:41.311Z,73.05
2019-03-25T10:07:41.278Z,71.58
2019-03-25T10:08:41.265Z,72.33
2019-03-25T10:09:41.256Z,73.54
2019-03-25T10:10:41.259Z,72.71
2019-03-25T10:11:41.260Z,71.16
2019-03-25T10:12:41.252Z,72.23
2019-03-25T10:13:41.244Z,73.05
2019-03-25T10:14:41.213Z,73.68
2019-03-25T10:15:41.192Z,72.85
2019-03-25T10:16:41.213Z,74.53
2019-03-25T10:17:41.170Z,74.63
2019-03-25T10:18:41.201Z,74.53
2019-03-25T10:19:41.143Z,74.46
2019-03-25T10:20:41.202Z,74.46
2019-03-25T10:21:41.422Z,75.19
2019-03-25T10:22:41.116Z,75.19
2019-03-25T10:23:41.141Z,75.32
2019-03-25T10:24:41.086Z,76.46
2019-03-25T10:25:41.073Z,78.22
2019-03-25T10:26:41.108Z,77.50
2019-03-25T10:27:41.056Z,78.22
2019-03-25T10:28:48.542Z,79.25
2019-03-25T10:29:42.032Z,80.08
2019-03-25T10:30:41.018Z,80.46
2019-03-25T10:31:41.076Z,80.11
2019-03-25T10:32:40.995Z,78.52
2019-03-25T10:33:40.987Z,77.49
2019-03-25T10:34:40.983Z,77.76
2019-03-25T10:35:40.960Z,76.53
2019-03-25T10:36:41.001Z,75.84
2019-03-25T10:37:40.959Z,76.76
2019-03-25T10:38:40.938Z,76.42
2019-03-25T10:39:40.924Z,76.56
2019-03-25T10:40:40.928Z,78.11
2019-03-25T10:41:40.925Z,78.77
2019-03-25T10:42:40.886Z,80.04
2019-03-25T10:43:40.878Z,81.90
2019-03-25T10:44:40.863Z,81.28
2019-03-25T10:45:40.859Z,80.48
2019-03-25T10:46:40.844Z,78.62
2019-03-25T10:47:40.839Z,78.00
2019-03-25T10:48:40.815Z,78.61
2019-03-25T10:49:40.825Z,74.12
2019-03-25T10:50:40.832Z,74.40
2019-03-25T10:51:40.795Z,74.12
2019-03-25T10:52:40.806Z,73.57
2019-03-25T10:53:40.757Z,72.10
2019-03-25T10:54:40.870Z,70.46
2019-03-25T10:55:40.740Z,70.56
2019-03-25T10:56:48.839Z,69.74
2019-03-25T10:57:41.739Z,69.19
2019-03-25T10:58:41.641Z,71.28
2019-03-25T10:59:40.746Z,71.04
2019-03-25T11:00:40.686Z,70.39
2019-03-25T11:01:40.679Z,72.09
2019-03-25T11:02:44.149Z,74.19
2019-03-25T11:04:41.637Z,73.50
2019-03-25T11:05:40.629Z,74.84
2019-03-25T11:06:40.613Z,74.67
2019-03-25T11:08:41.766Z,74.43
2019-03-25T11:09:40.767Z,75.46
2019-03-25T11:10:40.824Z,75.01
2019-03-25T11:11:40.731Z,72.09
2019-03-25T11:12:40.787Z,70.97
2019-03-25T11:13:40.706Z,71.82
2019-03-25T11:14:40.553Z,71.00
2019-03-25T11:15:40.519Z,71.10
2019-03-25T11:16:40.518Z,70.90
2019-03-25T11:17:40.530Z,69.84
2019-03-25T11:18:40.498Z,69.70
2019-03-25T11:19:40.497Z,68.85
2019-03-25T11:20:40.468Z,66.66
2019-03-25T11:21:40.462Z,65.44
2019-03-25T11:22:40.480Z,66.63
2019-03-25T11:23:40.453Z,66.76
2019-03-25T11:24:40.435Z,67.89
2019-03-25T11:25:40.448Z,66.38
2019-03-25T11:26:40.401Z,65.69
2019-03-25T11:27:40.406Z,66.72
2019-03-25T11:28:40.383Z,68.40
2019-03-25T11:29:40.368Z,67.95
2019-03-25T11:30:40.365Z,64.44
2019-03-25T11:31:40.338Z,64.09
2019-03-25T11:32:40.392Z,66.07
2019-03-25T11:33:40.318Z,67.95
2019-03-25T11:34:40.323Z,63.91
2019-03-25T11:35:40.304Z,63.53
2019-03-25T11:36:40.310Z,63.94
2019-03-25T11:37:40.312Z,61.26
2019-03-25T11:38:40.261Z,59.36
2019-03-25T11:39:40.253Z,54.97
2019-03-25T11:40:40.247Z,51.39
2019-03-25T11:41:40.247Z,54.49
2019-03-25T11:42:40.264Z,56.94
2019-03-25T11:43:40.221Z,58.45
2019-03-25T11:44:40.197Z,60.01
2019-03-25T11:45:40.192Z,60.47
2019-03-25T11:46:40.191Z,61.45
2019-03-25T11:47:40.190Z,65.88
2019-03-25T11:48:40.147Z,67.99
2019-03-25T11:49:40.138Z,71.62
2019-03-25T11:50:40.136Z,72.81
2019-03-25T11:51:40.122Z,75.63
2019-03-25T11:53:41.125Z,76.70
2019-03-25T11:54:40.080Z,76.90
2019-03-25T11:55:40.069Z,76.21
2019-03-25T11:56:40.067Z,76.15
2019-03-25T11:57:40.061Z,78.00
2019-03-25T11:59:41.194Z,70.47
2019-03-25T12:00:40.193Z,63.75
2019-03-25T12:01:40.257Z,58.71
2019-03-25T12:02:40.208Z,54.49
2019-03-25T12:03:40.171Z,50.40
2019-03-25T12:04:40.149Z,49.04
2019-03-25T12:05:40.802Z,48.21
2019-03-25T12:06:39.955Z,46.97
2019-03-25T12:07:39.983Z,46.42
2019-03-25T12:08:39.943Z,44.76
2019-03-25T12:09:41.551Z,43.32
2019-03-25T12:10:39.931Z,43.89
2019-03-25T12:11:39.897Z,44.64
2019-03-25T12:12:39.969Z,44.37
2019-03-25T12:13:39.875Z,42.38
2019-03-25T12:14:39.864Z,40.00
2019-03-25T12:15:39.866Z,38.42
2019-03-25T12:16:39.853Z,37.59
2019-03-25T12:17:39.876Z,37.62
2019-03-25T12:18:39.821Z,37.65
2019-03-25T12:19:39.826Z,35.75
2019-03-25T12:20:39.815Z,35.33
2019-03-25T12:21:39.807Z,34.89
2019-03-25T12:22:39.827Z,34.54
2019-03-25T12:23:39.772Z,36.74
2019-03-25T12:24:39.753Z,38.81
2019-03-25T12:25:39.764Z,40.53
2019-03-25T12:26:39.745Z,44.07
2019-03-25T12:27:39.760Z,46.53
2019-03-25T12:28:39.723Z,47.80
2019-03-25T12:29:39.707Z,50.26
2019-03-25T12:30:39.696Z,53.11
2019-03-25T12:31:39.688Z,55.62
2019-03-25T12:32:39.698Z,56.07
2019-03-25T12:33:39.685Z,50.87
2019-03-25T12:34:39.651Z,49.98
2019-03-25T12:35:39.640Z,49.58
2019-03-25T12:36:39.636Z,51.93
2019-03-25T12:37:39.698Z,55.99
2019-03-25T12:38:39.613Z,56.76
2019-03-25T12:39:39.603Z,57.92
2019-03-25T12:40:39.579Z,57.64
2019-03-25T12:41:39.573Z,59.25
2019-03-25T12:42:39.587Z,57.57
2019-03-25T12:43:39.565Z,53.22
2019-03-25T12:44:39.563Z,52.43
2019-03-25T12:45:39.533Z,48.87
2019-03-25T12:46:39.543Z,46.78
2019-03-25T12:47:39.531Z,45.97
2019-03-25T12:48:39.502Z,46.47
2019-03-25T12:49:39.498Z,45.84
2019-03-25T12:50:39.491Z,44.87
2019-03-25T12:51:39.493Z,44.73
2019-03-25T12:52:39.485Z,47.74
2019-03-25T12:53:39.442Z,49.13
2019-03-25T12:54:39.432Z,50.31
2019-03-25T12:55:39.435Z,50.84
2019-03-25T12:56:39.421Z,50.54